Time;durP1;ratioP1;P1;durP2;ratioP2;P2;SDS_P1;SDS_P2;PMS_P1;PMS_P2;Temp;Humidity;BMP_temperature;BMP_pressure;BME280_temperature;BME280_humidity;BME280_pressure;Samples;Min_cycle;Max_cycle;Signal;HPM_P1;HPM_P2
2023/05/21 00:01:55;;;;;;;12.20;6.90;;;17.10;99.90;;;17.47;79.87;100356.41;5007541;28;20721;-69
2023/05/21 00:04:24;;;;;;;11.80;7.73;;;17.10;99.90;;;17.46;79.97;100355.59;5010563;28;20667;-68
2023/05/21 00:06:51;;;;;;;10.37;6.67;;;17.10;99.90;;;17.43;79.92;100350.66;5009930;28;21227;-68
2023/05/21 00:09:18;;;;;;;13.73;8.30;;;17.00;99.90;;;17.44;79.69;100346.22;5010052;28;20646;-72
2023/05/21 00:11:45;;;;;;;13.40;7.23;;;17.00;99.90;;;17.44;80.14;100351.50;5007848;28;20673;-70
2023/05/21 00:14:12;;;;;;;15.20;8.47;;;17.00;99.90;;;17.43;79.76;100345.38;5026248;28;20593;-68
2023/05/21 00:16:39;;;;;;;15.30;7.83;;;17.00;99.90;;;17.43;80.03;100344.53;5020652;28;20745;-69
2023/05/21 00:19:06;;;;;;;9.90;6.73;;;17.00;99.90;;;17.42;80.20;100343.72;5009907;28;20752;-68
2023/05/21 00:21:33;;;;;;;12.60;7.57;;;17.00;99.90;;;17.40;80.00;100334.34;5023092;28;20703;-68
2023/05/21 00:24:00;;;;;;;11.80;7.53;;;17.00;99.90;;;17.40;80.20;100335.13;5024385;28;20608;-68
2023/05/21 00:26:27;;;;;;;12.90;8.23;;;17.00;99.90;;;17.39;80.22;100330.03;5024209;28;21220;-69
2023/05/21 00:28:54;;;;;;;15.13;8.90;;;17.00;99.90;;;17.39;80.16;100322.13;5009582;28;20759;-69
2023/05/21 00:31:21;;;;;;;14.07;7.53;;;17.00;99.90;;;17.42;79.76;100324.44;5021062;28;21308;-70
2023/05/21 00:33:49;;;;;;;11.67;6.90;;;17.00;99.90;;;17.42;80.06;100330.53;5022598;28;20992;-67
2023/05/21 00:36:16;;;;;;;9.50;4.97;;;17.00;99.90;;;17.43;79.91;100321.66;5014403;28;20665;-68
2023/05/21 00:38:44;;;;;;;12.27;7.20;;;17.00;99.90;;;17.40;79.91;100323.78;5014898;28;20745;-67
2023/05/21 00:41:12;;;;;;;13.50;7.70;;;17.00;99.90;;;17.38;79.97;100313.38;5009343;28;20637;-67
2023/05/21 00:43:40;;;;;;;11.73;6.60;;;17.00;99.90;;;17.36;80.00;100320.63;5008194;28;20641;-67
2023/05/21 00:46:15;;;;;;;12.70;7.50;;;17.00;99.90;;;17.36;79.94;100314.53;5025435;28;20620;-67
2023/05/21 00:48:44;;;;;;;16.30;9.17;;;17.00;99.90;;;17.36;80.36;100310.06;5028901;28;21246;-68
2023/05/21 00:51:12;;;;;;;12.27;7.67;;;17.00;99.90;;;17.35;80.04;100313.72;5027732;28;20660;-69
2023/05/21 00:53:40;;;;;;;12.20;7.30;;;17.00;99.90;;;17.32;80.68;100324.56;5030573;28;20624;-67
2023/05/21 00:56:07;;;;;;;17.40;8.57;;;16.90;99.90;;;17.31;80.79;100319.47;5030881;28;20624;-67
2023/05/21 00:58:34;;;;;;;12.30;7.00;;;16.90;99.90;;;17.30;80.80;100317.81;5030875;28;20659;-70
2023/05/21 01:01:02;;;;;;;11.30;7.10;;;16.90;99.90;;;17.30;80.89;100323.06;5025545;28;20621;-68
2023/05/21 01:03:36;;;;;;;16.23;8.70;;;16.90;99.90;;;17.27;80.67;100321.59;5012946;28;20633;-67
2023/05/21 01:06:05;;;;;;;12.70;7.40;;;16.90;99.90;;;17.23;80.74;100312.34;5016482;28;20629;-67
2023/05/21 01:08:39;;;;;;;14.63;7.73;;;16.90;99.90;;;17.22;80.71;100309.88;5029028;28;20712;-68
2023/05/21 01:11:08;;;;;;;13.30;7.33;;;16.80;99.90;;;17.21;81.01;100306.41;5012329;28;20715;-70
2023/05/21 01:13:40;;;;;;;10.67;7.27;;;16.90;99.90;;;17.23;80.56;100303.63;5013450;28;20640;-69
2023/05/21 01:16:08;;;;;;;10.40;6.23;;;16.80;99.90;;;17.24;80.89;100307.91;5014158;28;20654;-67
2023/05/21 01:18:36;;;;;;;12.97;7.70;;;16.90;99.90;;;17.23;80.66;100309.72;5028073;28;20739;-67
2023/05/21 01:21:06;;;;;;;10.77;7.63;;;16.90;99.90;;;17.19;81.15;100302.28;5022181;28;20616;-67
2023/05/21 01:23:33;;;;;;;12.50;7.60;;;16.80;99.90;;;17.18;81.08;100301.47;5012312;28;20664;-67
2023/05/21 01:26:00;;;;;;;13.87;7.00;;;16.80;99.90;;;17.13;81.65;100297.66;5039351;28;20647;-67
2023/05/21 01:28:28;;;;;;;11.20;7.80;;;16.80;99.90;;;17.11;81.27;100291.72;5012132;28;21255;-67
2023/05/21 01:31:02;;;;;;;13.70;8.30;;;16.70;99.90;;;17.10;81.69;100292.72;5016136;28;21378;-67
2023/05/21 01:33:39;;;;;;;13.93;8.40;;;16.70;99.90;;;17.13;81.44;100289.75;5011290;28;20605;-70
2023/05/21 01:36:14;;;;;;;14.83;9.33;;;16.70;99.90;;;17.07;81.50;100285.94;5009555;28;20607;-71
2023/05/21 01:39:22;;;;;;;12.70;7.83;;;16.70;99.90;;;17.04;82.12;100283.63;5018144;28;20652;-69
2023/05/21 01:41:52;;;;;;;11.27;7.07;;;16.70;99.90;;;17.04;82.05;100273.06;5012820;28;20605;-69
2023/05/21 01:44:21;;;;;;;16.60;10.40;;;16.70;99.90;;;17.02;82.04;100275.03;5012189;28;20594;-72
2023/05/21 01:46:48;;;;;;;5.40;4.17;;;16.70;99.90;;;17.03;82.14;100285.44;5023446;28;20636;-67
2023/05/21 01:49:17;;;;;;;9.10;4.90;;;16.70;99.90;;;17.02;81.77;100272.41;5027286;28;20653;-68
2023/05/21 01:51:45;;;;;;;13.20;7.67;;;16.60;99.90;;;16.98;82.15;100271.91;5024842;28;20680;-69
2023/05/21 01:54:13;;;;;;;13.40;7.87;;;16.60;99.90;;;16.97;82.33;100270.25;5023915;28;20760;-68
2023/05/21 01:56:40;;;;;;;16.47;7.43;;;16.60;99.90;;;16.96;82.51;100267.78;5030053;28;20628;-69
2023/05/21 01:59:07;;;;;;;14.30;8.10;;;16.60;99.90;;;16.92;82.96;100271.72;5030640;28;20636;-69
2023/05/21 02:01:35;;;;;;;9.97;6.40;;;16.50;99.90;;;16.93;82.56;100273.34;5012674;28;21218;-68
2023/05/21 02:04:02;;;;;;;13.57;7.50;;;16.60;99.90;;;16.93;82.97;100274.19;5030447;28;20624;-68
2023/05/21 02:06:30;;;;;;;12.13;6.90;;;16.60;99.90;;;16.94;82.19;100269.75;5012049;28;20665;-71
2023/05/21 02:08:57;;;;;;;11.20;6.50;;;16.50;99.90;;;16.93;82.57;100274.19;5023015;28;21240;-68
2023/05/21 02:11:25;;;;;;;13.00;8.00;;;16.50;99.90;;;16.90;82.81;100273.69;5010024;28;20657;-69
2023/05/21 02:13:53;;;;;;;13.90;6.83;;;16.50;99.90;;;16.89;82.82;100270.22;5025560;28;20616;-71
2023/05/21 02:16:21;;;;;;;12.33;6.70;;;16.50;99.90;;;16.89;82.90;100272.03;5016548;28;21252;-69
2023/05/21 02:18:52;;;;;;;11.30;7.20;;;16.50;99.90;;;16.83;83.01;100268.22;5023286;28;20667;-70
2023/05/21 02:21:19;;;;;;;15.50;7.40;;;16.50;99.90;;;16.80;83.55;100271.16;5025300;28;20617;-67
2023/05/21 02:23:46;;;;;;;12.60;7.33;;;16.40;99.90;;;16.80;83.42;100273.00;5023751;28;20656;-68
2023/05/21 02:26:13;;;;;;;10.00;6.20;;;16.40;99.90;;;16.80;83.07;100270.38;5015098;28;20621;-68
2023/05/21 02:28:40;;;;;;;14.60;8.43;;;16.40;99.90;;;16.78;83.32;100267.88;5029008;28;20672;-69
2023/05/21 02:31:07;;;;;;;12.73;7.10;;;16.40;99.90;;;16.78;83.48;100262.59;5022762;28;20653;-69
2023/05/21 02:33:34;;;;;;;11.00;6.40;;;16.40;99.90;;;16.76;83.47;100259.31;5012351;28;20671;-69
2023/05/21 02:36:01;;;;;;;12.23;6.70;;;16.40;99.90;;;16.74;83.67;100255.16;5019763;28;20636;-69
2023/05/21 02:38:28;;;;;;;12.60;6.57;;;16.40;99.90;;;16.75;83.92;100260.31;5024666;28;21444;-69
2023/05/21 02:40:55;;;;;;;13.30;7.63;;;16.40;99.90;;;16.76;83.60;100256.66;5016593;28;20630;-69
2023/05/21 02:43:22;;;;;;;13.70;8.00;;;16.40;99.90;;;16.74;83.89;100257.81;5028256;28;20621;-70
2023/05/21 02:45:50;;;;;;;14.07;7.50;;;16.40;99.90;;;16.73;83.66;100254.38;5026490;28;20628;-68
2023/05/21 02:48:17;;;;;;;12.17;7.23;;;16.40;99.90;;;16.73;83.36;100257.00;5017282;28;21258;-69
2023/05/21 02:50:44;;;;;;;10.23;5.33;;;16.40;99.90;;;16.78;83.57;100262.59;5028571;28;20665;-69
2023/05/21 02:53:11;;;;;;;9.73;6.70;;;16.40;99.90;;;16.77;83.32;100253.06;5029329;28;20715;-69
2023/05/21 02:55:38;;;;;;;13.57;7.80;;;16.40;99.90;;;16.74;83.19;100256.00;5029310;28;20609;-67
2023/05/21 02:58:05;;;;;;;9.70;6.43;;;16.40;99.90;;;16.74;83.25;100257.81;5011865;28;20724;-68
2023/05/21 03:00:32;;;;;;;10.90;6.97;;;16.40;99.90;;;16.70;83.73;100257.31;5015160;28;20626;-69
2023/05/21 03:02:59;;;;;;;13.90;7.30;;;16.40;99.90;;;16.68;83.66;100254.00;5024565;28;21011;-71
2023/05/21 03:05:26;;;;;;;7.70;5.57;;;16.30;99.90;;;16.68;84.29;100263.72;5013933;28;20620;-69
2023/05/21 03:07:53;;;;;;;11.70;6.37;;;16.30;99.90;;;16.67;83.66;100256.81;5009998;28;21153;-68
2023/05/21 03:10:20;;;;;;;12.90;7.37;;;16.30;99.90;;;16.67;84.05;100255.00;5009626;28;20680;-67
2023/05/21 03:12:47;;;;;;;13.70;7.50;;;16.30;99.90;;;16.66;83.66;100253.34;5031215;28;21255;-69
2023/05/21 03:15:15;;;;;;;12.07;7.23;;;16.30;99.90;;;16.66;83.82;100250.72;5030421;28;20623;-67
2023/05/21 03:17:43;;;;;;;10.23;7.40;;;16.30;99.90;;;16.64;83.69;100255.31;5017880;28;20637;-68
2023/05/21 03:20:15;;;;;;;15.73;8.00;;;16.30;99.90;;;16.65;83.99;100251.69;5011637;28;20646;-68
2023/05/21 03:22:45;;;;;;;11.23;6.23;;;16.30;99.90;;;16.68;83.24;100253.19;5026333;28;20632;-69
2023/05/21 03:25:12;;;;;;;14.13;5.60;;;16.30;99.90;;;16.67;83.66;100244.47;5010901;28;21888;-69
2023/05/21 03:27:39;;;;;;;9.70;6.27;;;16.30;99.90;;;16.67;83.24;100247.09;5019060;28;20696;-68
2023/05/21 03:30:08;;;;;;;10.80;6.27;;;16.30;99.90;;;16.65;83.82;100246.41;5022558;28;20775;-69
2023/05/21 03:32:36;;;;;;;13.40;7.77;;;16.30;99.90;;;16.69;83.69;100253.03;5029529;28;20660;-68
2023/05/21 03:35:04;;;;;;;10.67;6.33;;;16.30;99.90;;;16.64;84.28;100247.41;5028971;28;20650;-70
2023/05/21 03:37:31;;;;;;;11.67;6.93;;;16.30;99.90;;;16.61;84.20;100245.06;5029437;28;20803;-69
2023/05/21 03:39:58;;;;;;;11.90;7.20;;;16.20;99.90;;;16.57;83.95;100246.38;5023770;28;21066;-67
2023/05/21 03:42:25;;;;;;;9.03;5.10;;;16.20;99.90;;;16.51;84.71;100252.28;5027483;28;20609;-68
2023/05/21 03:44:52;;;;;;;15.53;9.90;;;16.20;99.90;;;16.44;84.80;100247.78;5018248;28;20644;-70
2023/05/21 03:47:19;;;;;;;13.60;7.87;;;16.10;99.90;;;16.47;85.37;100244.81;5028831;28;20678;-68
2023/05/21 03:49:46;;;;;;;14.83;7.83;;;16.10;99.90;;;16.45;85.12;100247.63;5021670;28;20661;-71
2023/05/21 03:52:13;;;;;;;12.40;6.50;;;16.10;99.90;;;16.44;85.03;100245.94;5031328;28;20640;-69
2023/05/21 03:54:40;;;;;;;13.40;9.20;;;16.10;99.90;;;16.42;85.18;100242.66;5029268;28;20596;-68
2023/05/21 03:57:07;;;;;;;12.30;7.87;;;16.10;99.90;;;16.43;85.33;100246.94;5021010;28;20640;-68
2023/05/21 03:59:34;;;;;;;14.20;9.67;;;16.10;99.90;;;16.46;85.44;100243.19;5012594;28;20649;-71
2023/05/21 04:02:01;;;;;;;14.70;8.90;;;16.10;99.90;;;16.49;84.81;100246.31;5009484;28;20673;-69
2023/05/21 04:04:28;;;;;;;13.43;8.10;;;16.10;99.90;;;16.49;84.91;100243.69;5009482;28;20665;-71
2023/05/21 04:06:55;;;;;;;17.27;9.33;;;16.10;99.90;;;16.49;85.16;100243.69;5011839;28;20598;-69
2023/05/21 04:09:22;;;;;;;12.30;7.80;;;16.10;99.90;;;16.54;84.33;100251.97;5010777;28;20700;-70
2023/05/21 04:11:49;;;;;;;15.57;9.30;;;16.20;99.90;;;16.57;84.15;100256.13;5019865;28;21112;-69
2023/05/21 04:14:16;;;;;;;11.40;7.70;;;16.20;99.90;;;16.53;84.75;100246.84;5029317;28;20700;-70
2023/05/21 04:16:43;;;;;;;13.60;8.30;;;16.20;99.90;;;16.49;85.02;100242.84;5027972;28;21175;-69
2023/05/21 04:19:10;;;;;;;12.60;8.80;;;16.20;99.90;;;16.50;85.14;100247.19;5027441;28;20731;-68
2023/05/21 04:21:37;;;;;;;11.00;6.40;;;16.10;99.90;;;16.49;84.94;100253.38;5023463;28;21200;-69
2023/05/21 04:24:04;;;;;;;17.30;9.30;;;16.20;99.90;;;16.46;85.12;100254.53;5042763;28;20719;-69
2023/05/21 04:26:33;;;;;;;13.67;8.47;;;16.10;99.90;;;16.43;85.28;100260.13;5032767;28;20694;-69
2023/05/21 04:29:02;;;;;;;15.23;8.60;;;16.10;99.90;;;16.44;85.42;100259.13;5016928;28;20661;-68
2023/05/21 04:31:33;;;;;;;11.20;6.27;;;16.10;99.90;;;16.48;85.16;100257.84;5009098;28;21144;-69
2023/05/21 04:34:00;;;;;;;12.63;8.13;;;16.10;99.90;;;16.49;84.84;100264.75;5026535;28;20598;-69
2023/05/21 04:36:27;;;;;;;14.00;8.10;;;16.20;99.90;;;16.50;85.28;100263.81;5024222;28;21008;-69
2023/05/21 04:38:54;;;;;;;13.77;7.03;;;16.10;99.90;;;16.55;85.19;100271.22;5009518;28;20663;-70
2023/05/21 04:41:21;;;;;;;13.23;8.13;;;16.20;99.90;;;16.53;85.12;100276.66;5013091;28;21193;-68
2023/05/21 04:43:53;;;;;;;12.63;7.70;;;16.20;99.90;;;16.53;85.29;100275.81;5022916;28;20620;-68
2023/05/21 04:46:24;;;;;;;11.30;6.83;;;16.20;99.90;;;16.56;85.08;100271.09;5022751;28;20676;-69
2023/05/21 04:48:53;;;;;;;12.30;7.50;;;16.30;99.90;;;16.62;84.85;100264.34;5019302;28;20656;-69
2023/05/21 04:51:23;;;;;;;11.17;6.57;;;16.30;99.90;;;16.65;84.64;100271.94;5021106;28;20711;-70
2023/05/21 04:53:50;;;;;;;12.83;7.03;;;16.30;99.90;;;16.65;84.17;100272.75;5024290;28;20636;-69
2023/05/21 04:56:18;;;;;;;13.17;7.60;;;16.30;99.90;;;16.68;84.28;100263.72;5018674;28;20625;-71
2023/05/21 04:58:46;;;;;;;13.37;7.80;;;16.30;99.90;;;16.66;84.70;100276.22;5024295;28;21236;-69
2023/05/21 05:01:14;;;;;;;14.70;9.03;;;16.30;99.90;;;16.69;84.87;100270.66;5019690;28;20692;-72
2023/05/21 05:03:41;;;;;;;12.17;8.03;;;16.30;99.90;;;16.72;84.51;100276.41;5009773;28;20589;-72
2023/05/21 05:06:08;;;;;;;14.73;8.10;;;16.40;99.90;;;16.79;83.92;100279.25;5020908;28;21209;-69
2023/05/21 05:08:35;;;;;;;10.93;6.97;;;16.50;99.90;;;16.84;84.06;100283.06;5008691;28;21061;-70
2023/05/21 05:11:02;;;;;;;13.60;8.20;;;16.50;99.90;;;16.86;83.36;100278.47;5012906;28;20728;-68
2023/05/21 05:13:29;;;;;;;12.77;6.70;;;16.50;99.90;;;16.86;83.83;100275.00;5008704;28;20668;-68
2023/05/21 05:15:56;;;;;;;15.67;7.30;;;16.50;99.90;;;16.90;83.48;100284.25;5016959;28;20628;-69
2023/05/21 05:18:23;;;;;;;11.67;7.03;;;16.50;99.90;;;16.94;83.51;100278.50;5012363;28;20688;-67
2023/05/21 05:20:50;;;;;;;12.07;7.03;;;16.60;99.90;;;16.98;83.42;100282.47;5029391;28;20694;-69
2023/05/21 05:23:18;;;;;;;10.10;7.30;;;16.60;99.90;;;17.00;83.09;100275.22;5019961;28;20622;-71
2023/05/21 05:25:45;;;;;;;11.63;7.87;;;16.70;99.90;;;17.06;83.06;100273.75;5029874;28;20620;-70
2023/05/21 05:28:12;;;;;;;13.07;9.30;;;16.70;99.90;;;17.07;82.67;100270.13;5026644;28;20632;-68
2023/05/21 05:30:39;;;;;;;12.50;9.10;;;16.80;99.90;;;17.12;82.38;100274.94;5029290;28;20639;-70
2023/05/21 05:33:06;;;;;;;15.03;8.83;;;16.80;99.90;;;17.14;81.97;100278.22;5029240;28;20672;-70
2023/05/21 05:35:33;;;;;;;11.77;8.37;;;16.80;99.90;;;17.18;82.00;100263.72;5012375;28;20637;-69
2023/05/21 05:38:00;;;;;;;14.50;8.70;;;16.80;99.90;;;17.29;81.86;100273.97;5012343;28;20605;-71
2023/05/21 05:40:27;;;;;;;13.97;8.20;;;16.90;99.90;;;17.38;81.56;100273.81;5025719;28;20629;-68
2023/05/21 05:42:54;;;;;;;14.30;8.37;;;17.00;99.90;;;17.48;80.65;100269.22;5015042;28;20674;-71
2023/05/21 05:45:21;;;;;;;9.17;6.00;;;17.10;99.90;;;17.53;80.58;100276.66;5017234;28;20644;-69
2023/05/21 05:47:48;;;;;;;11.90;7.70;;;17.20;99.90;;;17.63;80.22;100274.72;5008965;28;20631;-68
2023/05/21 05:50:15;;;;;;;13.47;6.97;;;17.30;99.90;;;17.84;79.32;100265.31;5019296;28;20663;-69
2023/05/21 05:52:42;;;;;;;12.57;8.50;;;17.40;99.90;;;18.05;77.90;100278.00;5021550;28;20664;-66
2023/05/21 05:55:11;;;;;;;14.70;8.00;;;17.60;99.90;;;18.30;77.20;100274.34;5013198;28;20613;-68
2023/05/21 05:57:38;;;;;;;13.40;8.17;;;17.90;99.90;;;18.71;75.31;100272.44;5028170;28;20616;-68
2023/05/21 06:00:08;;;;;;;11.50;8.47;;;18.20;99.90;;;19.14;73.12;100271.91;5014632;28;21534;-71
2023/05/21 06:02:36;;;;;;;13.87;9.33;;;18.70;99.90;;;19.50;71.52;100271.38;5021428;28;20645;-68
2023/05/21 06:05:05;;;;;;;14.90;8.03;;;19.00;99.90;;;19.93;69.86;100278.66;5014338;28;20631;-69
2023/05/21 06:07:32;;;;;;;12.20;8.47;;;19.40;99.90;;;20.33;68.15;100274.84;5016402;28;20632;-69
2023/05/21 06:09:59;;;;;;;11.60;8.43;;;19.80;99.90;;;20.57;67.03;100272.72;5015470;28;20655;-67
2023/05/21 06:12:26;;;;;;;13.53;8.13;;;20.10;99.90;;;20.74;66.75;100279.50;5029223;28;20695;-70
2023/05/21 06:14:53;;;;;;;11.77;7.50;;;20.40;99.90;;;21.24;65.14;100278.72;5024815;28;20621;-70
2023/05/21 06:17:23;;;;;;;11.10;8.10;;;20.90;99.90;;;21.60;63.19;100271.53;5037205;28;20660;-69
2023/05/21 06:19:50;;;;;;;12.73;8.70;;;21.30;99.90;;;21.82;61.98;100282.16;5023508;28;20667;-69
2023/05/21 06:22:17;;;;;;;12.30;7.53;;;21.50;99.90;;;22.04;61.06;100286.47;5032511;28;20619;-69
2023/05/21 06:24:44;;;;;;;11.90;7.60;;;21.80;99.90;;;22.16;61.14;100287.56;5014072;28;20636;-71
2023/05/21 06:27:11;;;;;;;11.60;7.60;;;21.90;99.90;;;22.37;60.48;100285.69;5014097;28;20653;-69
2023/05/21 06:29:39;;;;;;;13.20;8.23;;;22.10;99.90;;;22.83;59.17;100291.28;5012279;28;20747;-71
2023/05/21 06:32:08;;;;;;;12.07;7.37;;;22.50;99.90;;;23.24;57.31;100287.75;5013711;28;21110;-67
2023/05/21 06:34:35;;;;;;;6.07;4.73;;;23.00;99.90;;;23.81;56.20;100299.59;5015976;28;20660;-69
2023/05/21 06:37:02;;;;;;;8.23;4.57;;;23.50;99.90;;;24.47;54.50;100296.91;5014413;28;20862;-72
2023/05/21 06:39:29;;;;;;;9.60;6.87;;;24.10;99.90;;;25.20;52.36;100282.34;5017950;28;20657;-68
2023/05/21 06:41:56;;;;;;;10.87;8.40;;;24.90;99.90;;;25.86;50.46;100288.13;5015285;28;20732;-73
2023/05/21 06:44:23;;;;;;;11.60;8.10;;;25.60;99.90;;;26.49;49.14;100289.63;5018479;28;21493;-69
2023/05/21 06:46:53;;;;;;;12.00;7.90;;;26.10;99.90;;;27.10;47.19;100286.91;5010146;28;20720;-68
2023/05/21 06:49:25;;;;;;;11.83;7.90;;;26.80;98.30;;;27.63;46.75;100295.03;5028895;28;20652;-72
2023/05/21 06:51:54;;;;;;;11.40;8.67;;;27.30;97.40;;;27.87;45.59;100299.44;5024412;28;20636;-67
2023/05/21 06:54:23;;;;;;;10.90;6.80;;;27.60;95.80;;;28.22;44.77;100304.84;5025336;28;21208;-69
2023/05/21 06:56:55;;;;;;;11.07;7.50;;;27.90;94.90;;;28.47;44.41;100299.25;5012065;28;20635;-72
2023/05/21 06:59:22;;;;;;;11.63;8.07;;;28.30;93.80;;;28.65;43.88;100307.19;5010319;28;20765;-70
2023/05/21 07:01:49;;;;;;;8.83;6.10;;;28.60;92.80;;;28.89;43.01;100306.09;5030566;28;20643;-69
2023/05/21 07:04:20;;;;;;;10.20;7.63;;;28.70;92.40;;;29.55;42.02;100306.34;4996863;28;20617;-70
2023/05/21 07:06:51;;;;;;;12.03;8.00;;;29.30;91.50;;;30.03;41.36;100305.06;5022508;28;20717;-66
2023/05/21 07:09:18;;;;;;;11.03;7.70;;;29.80;90.10;;;30.42;39.72;100306.75;5010464;28;20660;-69
2023/05/21 07:11:45;;;;;;;10.00;6.50;;;30.30;87.40;;;31.10;39.26;100306.31;5018667;28;20678;-69
2023/05/21 07:14:12;;;;;;;9.63;7.03;;;30.80;86.00;;;31.61;38.39;100297.72;5024537;28;20668;-71
2023/05/21 07:16:39;;;;;;;10.47;8.37;;;31.40;83.30;;;31.84;37.47;100289.28;5009424;28;21093;-69
2023/05/21 07:19:07;;;;;;;10.53;8.43;;;31.60;81.30;;;31.57;38.01;100293.09;5007318;28;20672;-72
2023/05/21 07:21:36;;;;;;;11.90;7.97;;;31.60;79.80;;;31.88;38.01;100300.41;5022388;28;20612;-70
2023/05/21 07:24:04;;;;;;;8.93;7.97;;;31.70;79.70;;;31.62;37.95;100291.28;5026825;28;20657;-69
2023/05/21 07:26:31;;;;;;;8.97;8.03;;;31.50;78.90;;;31.64;37.82;100291.84;5017100;28;21250;-69
2023/05/21 07:28:58;;;;;;;9.80;8.10;;;31.60;77.90;;;31.78;37.90;100289.50;5027645;28;20712;-69
2023/05/21 07:31:27;;;;;;;9.87;8.67;;;31.70;77.50;;;32.05;37.33;100287.63;5030320;28;20592;-70
2023/05/21 07:33:57;;;;;;;11.57;8.00;;;31.90;76.40;;;31.90;37.30;100304.44;5010364;28;20675;-66
2023/05/21 07:36:25;;;;;;;8.70;6.73;;;31.80;75.90;;;32.36;36.89;100297.53;5011332;28;20621;-67
2023/05/21 07:38:52;;;;;;;9.10;7.40;;;32.20;75.60;;;32.40;36.55;100300.53;5009449;28;21122;-69
2023/05/21 07:41:20;;;;;;;9.67;7.37;;;32.30;74.30;;;32.66;36.26;100291.53;5027937;28;20670;-70
2023/05/21 07:43:48;;;;;;;8.57;6.80;;;32.60;73.80;;;33.19;36.48;100293.09;5029078;28;20617;-71
2023/05/21 07:46:15;;;;;;;8.03;6.50;;;33.00;73.50;;;34.02;34.94;100294.59;5030203;28;20589;-71
2023/05/21 07:48:45;;;;;;;7.77;6.50;;;33.70;72.30;;;34.52;34.21;100282.88;5024764;28;20759;-71
2023/05/21 07:51:12;;;;;;;8.33;7.53;;;34.30;70.40;;;34.69;33.31;100284.16;5027080;28;20678;-69
2023/05/21 07:53:39;;;;;;;9.00;7.73;;;34.60;69.00;;;34.44;33.34;100284.22;5015148;28;20676;-69
2023/05/21 07:56:06;;;;;;;7.30;6.30;;;34.60;67.70;;;34.48;33.03;100290.72;5014705;28;20736;-66
2023/05/21 07:58:34;;;;;;;8.87;7.97;;;34.70;67.10;;;34.20;33.99;100284.00;5023214;28;20652;-72
2023/05/21 08:01:01;;;;;;;9.10;8.30;;;34.40;67.20;;;34.40;33.70;100283.16;5016063;28;20664;-69
2023/05/21 08:03:31;;;;;;;9.37;7.93;;;34.50;67.00;;;34.63;33.03;100279.84;5018390;28;20632;-67
2023/05/21 08:06:00;;;;;;;9.30;6.83;;;34.80;66.00;;;35.41;31.99;100280.03;5027999;28;20620;-70
2023/05/21 08:08:27;;;;;;;8.50;7.60;;;35.40;65.40;;;35.66;31.16;100279.88;5014941;28;20751;-68
2023/05/21 08:10:55;;;;;;;9.27;8.20;;;35.90;63.60;;;35.57;31.24;100282.38;5029606;28;20694;-70
2023/05/21 08:13:23;;;;;;;9.47;7.90;;;35.80;62.70;;;35.97;30.95;100280.47;5010232;28;20672;-70
2023/05/21 08:15:50;;;;;;;8.43;7.63;;;36.00;63.00;;;36.33;30.50;100284.44;5016335;28;20636;-69
2023/05/21 08:18:19;;;;;;;7.83;7.03;;;36.40;61.80;;;36.92;29.58;100292.22;5015551;28;20633;-71
2023/05/21 08:20:47;;;;;;;8.17;7.50;;;36.90;61.20;;;37.35;29.04;100282.13;5015542;28;20664;-71
2023/05/21 08:23:14;;;;;;;8.03;7.23;;;37.50;60.00;;;37.61;28.66;100286.09;5024485;28;20619;-72
2023/05/21 08:25:41;;;;;;;7.30;6.60;;;37.70;59.20;;;37.04;29.70;100285.25;5022322;28;20719;-66
2023/05/21 08:28:11;;;;;;;8.97;8.07;;;37.40;58.80;;;37.25;29.39;100272.97;5021718;28;20640;-70
2023/05/21 08:30:41;;;;;;;8.07;7.30;;;37.40;58.60;;;37.33;29.15;100266.09;5018123;28;21080;-72
2023/05/21 08:33:11;;;;;;;8.70;7.63;;;37.50;58.30;;;37.11;28.98;100266.69;5012197;28;20649;-68
2023/05/21 08:35:50;;;;;;;8.90;8.07;;;37.30;57.70;;;36.69;29.43;100268.56;5019893;28;21054;-67
2023/05/21 08:38:20;;;;;;;8.60;7.70;;;37.00;57.80;;;36.99;29.13;100269.00;5011392;28;20626;-66
2023/05/21 08:40:49;;;;;;;8.43;7.67;;;37.20;57.20;;;37.19;28.85;100265.19;5010530;28;20719;-67
2023/05/21 08:43:16;;;;;;;8.90;8.10;;;37.50;56.70;;;36.94;29.07;100268.28;5010280;28;20641;-66
2023/05/21 08:45:54;;;;;;;8.50;7.60;;;37.30;56.70;;;37.42;28.96;100272.47;5021107;28;21031;-69
2023/05/21 08:48:24;;;;;;;4.57;4.17;;;37.60;56.70;;;37.81;28.16;100270.25;5027560;28;20620;-66
2023/05/21 08:50:54;;;;;;;7.70;6.97;;;38.20;55.90;;;38.36;27.32;100268.44;5013108;28;20702;-68
2023/05/21 08:53:22;;;;;;;6.90;6.20;;;38.50;55.60;;;38.63;27.50;100270.38;5012600;28;20642;-67
2023/05/21 08:55:56;;;;;;;7.50;6.90;;;39.00;55.10;;;37.42;28.76;100266.25;5015362;28;20973;-68
2023/05/21 08:58:23;;;;;;;7.50;6.80;;;38.00;55.10;;;36.72;29.07;100274.22;5023089;28;20670;-64
2023/05/21 09:00:50;;;;;;;5.40;4.67;;;37.40;55.50;;;35.00;31.27;100266.72;5027477;28;20657;-67
2023/05/21 09:03:21;;;;;;;6.70;5.93;;;36.00;56.70;;;35.11;31.67;100267.47;5012719;28;20698;-68
2023/05/21 09:05:51;;;;;;;9.10;8.20;;;35.50;57.70;;;35.44;31.35;100257.78;5017731;28;20731;-67
2023/05/21 09:08:26;;;;;;;7.30;6.60;;;35.50;58.10;;;36.01;30.59;100266.03;5020557;28;20632;-65
2023/05/21 09:10:56;;;;;;;8.07;7.27;;;36.00;57.60;;;37.08;29.66;100269.16;5012265;28;20993;-68
2023/05/21 09:13:44;;;;;;;8.50;7.70;;;37.00;56.60;;;37.37;28.89;100271.75;5023375;28;20667;-69
2023/05/21 09:16:12;;;;;;;7.60;6.97;;;37.60;55.40;;;37.17;28.58;100278.28;5032659;28;20628;-70
2023/05/21 09:18:45;;;;;;;7.93;7.13;;;37.50;55.20;;;36.81;28.91;100277.09;5029060;28;20660;-67
2023/05/21 09:21:27;;;;;;;8.87;7.20;;;37.10;55.40;;;36.63;29.59;100278.72;5028546;28;21266;-67
2023/05/21 09:23:56;;;;;;;7.93;7.23;;;36.90;56.10;;;37.05;29.77;100270.56;5026900;28;20616;-68
2023/05/21 09:26:24;;;;;;;7.70;7.00;;;37.10;56.20;;;37.27;28.92;100278.13;5028407;28;20674;-66
2023/05/21 09:28:59;;;;;;;8.00;7.20;;;37.50;55.40;;;37.39;29.07;100275.81;5026189;28;20659;-67
2023/05/21 09:31:29;;;;;;;6.37;5.70;;;37.60;55.40;;;37.31;29.36;100279.19;5009897;28;21218;-68
2023/05/21 09:33:59;;;;;;;7.70;6.90;;;37.60;55.30;;;36.90;29.87;100269.97;5011945;28;20652;-66
2023/05/21 09:36:33;;;;;;;5.30;4.80;;;37.20;55.90;;;36.54;30.46;100272.28;5029013;28;20682;-66
2023/05/21 09:39:00;;;;;;;8.17;7.47;;;37.10;55.90;;;37.22;29.04;100270.06;4992228;28;20673;-67
2023/05/21 09:41:35;;;;;;;8.40;7.60;;;37.30;55.50;;;37.23;28.58;100271.66;5011416;28;20698;-67
2023/05/21 09:44:03;;;;;;;8.23;7.43;;;37.60;54.70;;;38.54;28.07;100264.81;5032508;28;20632;-68
2023/05/21 09:46:40;;;;;;;7.03;6.43;;;38.40;54.70;;;39.64;26.35;100271.69;5021152;28;20728;-68
2023/05/21 09:49:26;;;;;;;7.77;7.17;;;39.50;53.30;;;39.24;26.75;100272.63;5023801;28;21251;-72
2023/05/21 09:51:57;;;;;;;7.57;6.80;;;39.60;53.00;;;39.34;26.77;100258.72;5026697;28;20727;-66
2023/05/21 09:54:31;;;;;;;8.20;7.50;;;39.70;52.70;;;39.33;26.74;100271.59;5030622;28;20738;-69
2023/05/21 09:57:01;;;;;;;7.83;7.13;;;39.70;52.70;;;38.57;27.77;100269.66;5017571;28;21059;-68
2023/05/21 09:59:37;;;;;;;9.53;8.60;;;39.00;53.60;;;37.97;28.50;100260.69;5027698;28;20688;-70
2023/05/21 10:02:22;;;;;;;7.87;7.03;;;38.30;54.00;;;37.37;28.91;100252.72;5020328;28;20707;-67
2023/05/21 10:04:51;;;;;;;8.53;7.30;;;37.60;54.70;;;36.79;29.54;100263.00;5015536;28;20601;-66
2023/05/21 10:07:24;;;;;;;10.03;7.97;;;37.00;55.40;;;36.28;30.07;100260.88;5024302;28;20625;-65
2023/05/21 10:09:56;;;;;;;7.80;7.00;;;36.20;55.90;;;35.74;30.90;100243.97;5017175;28;20672;-66
2023/05/21 10:12:24;;;;;;;9.93;7.60;;;35.60;56.40;;;34.98;32.01;100249.09;5019036;28;20625;-66
2023/05/21 10:15:07;;;;;;;9.00;7.43;;;34.80;57.60;;;34.18;33.68;100245.56;5030721;28;20668;-67